createdAt,value
2018-12-23T00:01:50.550Z,2.83
2018-12-23T00:04:33.913Z,2.60
2018-12-23T00:07:05.530Z,2.40
2018-12-23T00:09:42.825Z,2.67
2018-12-23T00:12:16.717Z,2.50
2018-12-23T00:14:54.220Z,2.80
2018-12-23T00:17:27.886Z,2.40
2018-12-23T00:20:08.283Z,2.80
2018-12-23T00:22:41.989Z,2.63
2018-12-23T00:25:15.262Z,2.87
2018-12-23T00:27:48.700Z,2.63
2018-12-23T00:30:21.952Z,2.67
2018-12-23T00:32:55.090Z,2.90
2018-12-23T00:35:28.304Z,3.23
2018-12-23T00:38:02.451Z,2.90
2018-12-23T00:40:35.812Z,2.60
2018-12-23T00:43:09.319Z,3.20
2018-12-23T00:45:48.565Z,2.70
2018-12-23T00:48:21.666Z,2.83
2018-12-23T00:51:01.128Z,2.90
2018-12-23T00:53:34.902Z,2.70
2018-12-23T00:56:12.353Z,2.87
2018-12-23T00:58:49.515Z,3.00
2018-12-23T01:01:22.929Z,2.53
2018-12-23T01:03:56.196Z,2.73
2018-12-23T01:06:35.588Z,2.50
2018-12-23T01:09:13.656Z,2.90
2018-12-23T01:11:47.358Z,3.07
2018-12-23T01:14:20.625Z,2.40
2018-12-23T01:16:57.901Z,2.90
2018-12-23T01:19:35.757Z,2.73
2018-12-23T01:22:09.597Z,3.27
2018-12-23T01:24:43.684Z,2.97
2018-12-23T01:27:17.846Z,2.40
2018-12-23T01:29:56.262Z,2.20
2018-12-23T01:32:30.175Z,2.60
2018-12-23T01:35:09.520Z,2.40
2018-12-23T01:37:43.350Z,1.90
2018-12-23T01:40:20.821Z,2.30
2018-12-23T01:42:54.781Z,2.20
2018-12-23T01:45:27.944Z,1.90
2018-12-23T01:48:01.078Z,1.97
2018-12-23T01:50:40.450Z,2.20
2018-12-23T01:53:14.390Z,2.07
2018-12-23T01:55:52.011Z,1.83
2018-12-23T01:58:29.305Z,2.17
2018-12-23T02:01:03.025Z,2.40
2018-12-23T02:03:36.252Z,1.90
2018-12-23T02:06:09.387Z,2.43
2018-12-23T02:08:46.733Z,2.07
2018-12-23T02:11:26.857Z,2.10
2018-12-23T02:14:06.773Z,2.10
2018-12-23T02:16:40.611Z,2.23
2018-12-23T02:19:13.721Z,2.37
2018-12-23T02:21:52.985Z,2.53
2018-12-23T02:24:30.837Z,2.20
2018-12-23T02:27:10.584Z,2.50
2018-12-23T02:29:48.657Z,2.57
2018-12-23T02:32:22.164Z,2.43
2018-12-23T02:34:55.215Z,2.90
2018-12-23T02:37:32.575Z,2.70
2018-12-23T02:40:10.616Z,2.60
2018-12-23T02:42:47.815Z,2.83
2018-12-23T02:45:21.621Z,2.67
2018-12-23T02:47:54.938Z,2.80
2018-12-23T02:50:32.382Z,3.00
2018-12-23T02:53:09.544Z,3.00
2018-12-23T02:55:43.488Z,2.57
2018-12-23T02:58:22.861Z,2.83
2018-12-23T03:01:00.801Z,2.90
2018-12-23T03:03:34.425Z,2.80
2018-12-23T03:06:11.936Z,2.53
2018-12-23T03:08:46.818Z,2.80
2018-12-23T03:11:20.883Z,2.47
2018-12-23T03:19:03.912Z,2.60
2018-12-23T03:24:13.853Z,2.70
2018-12-23T03:26:47.738Z,2.70
2018-12-23T03:29:27.289Z,2.70
2018-12-23T03:32:01.042Z,2.60
2018-12-23T03:34:35.599Z,2.30
2018-12-23T03:37:08.969Z,2.60
2018-12-23T03:39:43.705Z,2.50
2018-12-23T03:42:16.946Z,2.30
2018-12-23T03:44:52.169Z,2.43
2018-12-23T03:47:25.869Z,2.13
2018-12-23T03:49:57.137Z,2.30
2018-12-23T03:52:34.112Z,2.20
2018-12-23T03:55:13.264Z,1.97
2018-12-23T03:57:46.989Z,2.20
2018-12-23T04:00:24.921Z,2.20
2018-12-23T04:02:58.702Z,2.07
2018-12-23T04:05:32.729Z,2.07
2018-12-23T04:08:09.846Z,2.20
2018-12-23T04:10:47.805Z,2.00
2018-12-23T04:13:21.465Z,1.93
2018-12-23T04:15:55.323Z,1.87
2018-12-23T04:18:28.469Z,2.17
2018-12-23T04:21:01.786Z,2.00
2018-12-23T04:23:35.835Z,2.00
2018-12-23T04:26:13.221Z,1.90
2018-12-23T04:36:23.569Z,2.40
2018-12-23T04:38:56.657Z,2.20
2018-12-23T04:41:29.970Z,1.90
2018-12-23T04:44:03.024Z,1.90
2018-12-23T04:46:40.303Z,1.80
2018-12-23T04:49:13.952Z,2.53
2018-12-23T04:51:53.440Z,2.60
2018-12-23T04:54:31.480Z,2.60
2018-12-23T04:57:05.210Z,2.23
2018-12-23T04:59:38.657Z,2.30
2018-12-23T05:02:11.978Z,2.30
2018-12-23T05:04:45.194Z,2.70
2018-12-23T05:07:18.466Z,2.27
2018-12-23T05:09:51.859Z,2.40
2018-12-23T05:12:24.880Z,2.30
2018-12-23T05:14:58.224Z,2.60
2018-12-23T05:17:31.510Z,2.70
2018-12-23T05:20:05.217Z,2.23
2018-12-23T05:22:42.362Z,2.50
2018-12-23T05:25:16.317Z,3.23
2018-12-23T05:27:50.277Z,2.67
2018-12-23T05:30:27.914Z,2.70
2018-12-23T05:33:01.037Z,3.80
2018-12-23T05:35:34.250Z,4.80
2018-12-23T05:38:11.614Z,3.80
2018-12-23T05:40:45.440Z,2.90
2018-12-23T05:43:22.809Z,2.90
2018-12-23T05:46:00.660Z,2.87
2018-12-23T05:48:34.383Z,2.23
2018-12-23T05:51:05.662Z,2.57
2018-12-23T05:53:38.781Z,2.70
2018-12-23T05:56:11.947Z,2.70
2018-12-23T05:58:45.091Z,2.97
2018-12-23T06:01:20.629Z,2.57
2018-12-23T06:03:54.345Z,2.40
2018-12-23T06:06:27.358Z,2.30
2018-12-23T06:09:00.546Z,2.57
2018-12-23T06:11:33.765Z,3.10
2018-12-23T06:14:10.840Z,2.90
2018-12-23T06:16:44.568Z,2.73
2018-12-23T06:19:21.761Z,2.87
2018-12-23T06:21:55.444Z,3.30
2018-12-23T06:24:32.860Z,3.20
2018-12-23T06:27:09.972Z,2.80
2018-12-23T06:29:41.841Z,3.30
2018-12-23T06:32:14.922Z,2.90
2018-12-23T06:34:48.081Z,3.47
2018-12-23T06:37:27.561Z,3.43
2018-12-23T06:39:59.164Z,3.83
2018-12-23T06:42:32.461Z,3.77
2018-12-23T06:45:11.837Z,3.57
2018-12-23T06:47:43.577Z,3.87
2018-12-23T06:50:16.512Z,3.97
2018-12-23T06:52:49.821Z,4.23
2018-12-23T06:55:23.749Z,3.57
2018-12-23T06:57:57.083Z,3.27
2018-12-23T07:00:36.712Z,3.80
2018-12-23T07:03:08.685Z,3.00
2018-12-23T07:05:42.069Z,3.57
2018-12-23T07:08:15.139Z,3.63
2018-12-23T07:10:53.409Z,2.97
2018-12-23T07:13:26.331Z,3.20
2018-12-23T07:15:59.469Z,3.60
2018-12-23T07:18:39.079Z,3.70
2018-12-23T07:21:12.867Z,3.30
2018-12-23T07:23:46.261Z,3.37
2018-12-23T07:26:25.636Z,2.87
2018-12-23T07:29:03.642Z,3.03
2018-12-23T07:31:35.462Z,3.00
2018-12-23T07:34:08.499Z,2.60
2018-12-23T07:36:49.390Z,3.00
2018-12-23T07:39:22.190Z,3.03
2018-12-23T07:41:56.046Z,2.70
2018-12-23T07:44:35.421Z,3.00
2018-12-23T07:47:09.262Z,3.00
2018-12-23T07:49:42.301Z,2.53
2018-12-23T07:52:15.642Z,2.73
2018-12-23T07:54:47.609Z,2.93
2018-12-23T07:57:20.935Z,2.77
2018-12-23T07:59:56.349Z,2.80
2018-12-23T08:02:30.065Z,2.80
2018-12-23T08:05:08.452Z,2.50
2018-12-23T08:07:42.336Z,3.10
2018-12-23T08:10:15.609Z,2.63
2018-12-23T08:12:48.773Z,2.70
2018-12-23T08:15:23.017Z,2.73
2018-12-23T08:17:54.514Z,2.50
2018-12-23T08:20:25.772Z,2.77
2018-12-23T08:22:58.799Z,2.93
2018-12-23T08:25:35.753Z,2.80
2018-12-23T08:28:07.821Z,2.80
2018-12-23T08:30:47.301Z,2.70
2018-12-23T08:33:20.308Z,2.60
2018-12-23T08:35:57.753Z,2.30
2018-12-23T08:38:33.676Z,2.10
2018-12-23T08:41:07.748Z,2.50
2018-12-23T08:43:41.185Z,2.20
2018-12-23T08:46:14.277Z,2.13
2018-12-23T08:48:49.605Z,1.97
2018-12-23T08:51:22.605Z,2.27
2018-12-23T08:54:00.140Z,2.23
2018-12-23T08:56:37.141Z,1.97
2018-12-23T08:59:10.285Z,2.17
2018-12-23T09:01:44.212Z,2.10
2018-12-23T09:04:17.257Z,2.60
2018-12-23T09:06:50.368Z,2.40
2018-12-23T09:09:24.517Z,2.03
2018-12-23T09:12:01.646Z,2.10
2018-12-23T09:14:35.471Z,2.20
2018-12-23T09:17:15.017Z,2.17
2018-12-23T09:19:48.729Z,1.80
2018-12-23T09:23:13.832Z,2.00
2018-12-23T09:25:57.054Z,2.23
2018-12-23T09:28:39.942Z,2.00
2018-12-23T09:31:23.065Z,1.93
2018-12-23T09:34:06.810Z,2.20
2018-12-23T09:36:49.677Z,1.87
2018-12-23T09:39:32.545Z,2.13
2018-12-23T09:42:15.659Z,2.40
2018-12-23T09:44:58.778Z,2.40
2018-12-23T09:47:41.499Z,2.23
2018-12-23T09:50:24.555Z,2.40
2018-12-23T09:53:07.999Z,2.60
2018-12-23T09:55:51.321Z,2.23
2018-12-23T09:58:34.306Z,2.37
2018-12-23T10:01:17.147Z,2.40
2018-12-23T10:04:00.694Z,2.37
2018-12-23T10:06:43.961Z,2.80
2018-12-23T10:09:27.635Z,2.13
2018-12-23T10:12:10.394Z,2.30
2018-12-23T10:14:53.474Z,3.10
2018-12-23T10:17:36.907Z,2.87
2018-12-23T10:20:20.741Z,2.43
2018-12-23T10:23:03.965Z,3.00
2018-12-23T10:25:48.469Z,2.70
2018-12-23T10:28:31.662Z,2.97
2018-12-23T10:31:14.619Z,3.40
2018-12-23T10:33:57.947Z,2.77
2018-12-23T10:36:41.291Z,2.53
2018-12-23T10:39:24.163Z,2.40
2018-12-23T10:42:07.743Z,2.90
2018-12-23T10:44:50.768Z,2.90
2018-12-23T10:47:33.903Z,3.20
2018-12-23T10:50:16.946Z,2.90
2018-12-23T10:52:59.875Z,3.10
2018-12-23T10:55:43.459Z,3.10
2018-12-23T10:58:27.290Z,3.00
2018-12-23T11:01:10.907Z,2.77
2018-12-23T11:03:54.609Z,3.03
2018-12-23T11:06:38.311Z,2.80
2018-12-23T11:09:21.570Z,3.13
2018-12-23T11:12:04.908Z,2.90
2018-12-23T11:14:48.014Z,2.67
2018-12-23T11:17:31.558Z,2.90
2018-12-23T11:20:14.347Z,2.93
2018-12-23T11:22:57.666Z,2.90
2018-12-23T11:25:41.304Z,2.70
2018-12-23T11:28:24.567Z,2.90
2018-12-23T11:31:07.687Z,2.93
2018-12-23T11:33:50.743Z,2.60
2018-12-23T11:36:34.422Z,2.40
2018-12-23T11:39:18.606Z,2.87
2018-12-23T11:42:01.865Z,3.10
2018-12-23T11:44:44.388Z,3.10
2018-12-23T11:47:27.570Z,3.10
2018-12-23T11:50:10.395Z,3.10
2018-12-23T11:52:53.506Z,2.70
2018-12-23T11:55:36.980Z,3.10
2018-12-23T11:58:18.954Z,2.70
2018-12-23T12:01:01.710Z,3.20
2018-12-23T12:03:45.067Z,3.17
2018-12-23T12:06:28.440Z,2.57
2018-12-23T12:09:11.978Z,2.70
2018-12-23T12:11:54.786Z,3.60
2018-12-23T12:14:38.059Z,2.90
2018-12-23T12:17:10.304Z,3.17
2018-12-23T12:19:42.593Z,2.93
2018-12-23T12:22:27.535Z,2.87
2018-12-23T12:25:10.539Z,2.70
2018-12-23T12:27:53.575Z,3.30
2018-12-23T12:30:36.297Z,3.20
2018-12-23T12:33:19.997Z,2.93
2018-12-23T12:36:03.262Z,2.97
2018-12-23T12:38:52.126Z,3.23
2018-12-23T12:41:31.276Z,3.10
2018-12-23T12:44:14.774Z,3.37
2018-12-23T12:46:58.976Z,3.33
2018-12-23T12:49:43.144Z,3.40
2018-12-23T12:52:26.452Z,3.20
2018-12-23T12:55:10.075Z,3.40
2018-12-23T12:57:53.431Z,3.30
2018-12-23T13:00:37.115Z,3.40
2018-12-23T13:03:09.355Z,3.60
2018-12-23T13:06:00.173Z,3.70
2018-12-23T13:08:43.762Z,3.03
2018-12-23T13:11:26.877Z,3.40
2018-12-23T13:14:10.489Z,3.67
2018-12-23T13:16:54.865Z,3.47
2018-12-23T13:19:38.513Z,3.30
2018-12-23T13:22:22.059Z,4.03
2018-12-23T13:25:04.774Z,3.17
2018-12-23T13:27:48.053Z,4.30
2018-12-23T13:30:30.929Z,3.70
2018-12-23T13:33:15.526Z,4.03
2018-12-23T13:35:59.979Z,3.27
2018-12-23T13:38:42.777Z,3.27
2018-12-23T13:41:29.911Z,3.67
2018-12-23T13:44:14.415Z,3.60
2018-12-23T13:46:57.362Z,3.30
2018-12-23T13:49:40.349Z,3.30
2018-12-23T13:52:24.023Z,3.30
2018-12-23T13:55:07.308Z,3.47
2018-12-23T13:57:50.133Z,3.73
2018-12-23T14:00:33.150Z,3.40
2018-12-23T14:03:16.429Z,3.40
2018-12-23T14:05:59.853Z,2.83
2018-12-23T14:08:43.510Z,3.03
2018-12-23T14:11:26.542Z,3.00
2018-12-23T14:14:09.479Z,3.13
2018-12-23T14:16:52.920Z,3.30
2018-12-23T14:19:36.775Z,3.17
2018-12-23T14:22:19.555Z,3.20
2018-12-23T14:25:02.399Z,3.33
2018-12-23T14:27:45.925Z,3.00
2018-12-23T14:30:27.821Z,2.93
2018-12-23T14:33:18.607Z,2.60
2018-12-23T14:36:01.658Z,2.50
2018-12-23T14:38:45.297Z,2.67
2018-12-23T14:41:28.917Z,2.50
2018-12-23T14:44:12.266Z,2.70
2018-12-23T14:46:55.010Z,2.00
2018-12-23T14:49:38.149Z,2.50
2018-12-23T14:52:21.687Z,2.27
2018-12-23T14:55:04.867Z,2.40
2018-12-23T14:57:48.871Z,2.23
2018-12-23T15:00:31.802Z,2.30
2018-12-23T15:03:15.952Z,2.50
2018-12-23T15:05:58.875Z,2.50
2018-12-23T15:08:42.067Z,3.00
2018-12-23T15:11:25.730Z,2.97
2018-12-23T15:14:09.171Z,3.03
2018-12-23T15:16:51.976Z,3.13
2018-12-23T15:19:35.335Z,4.20
2018-12-23T15:22:18.701Z,3.53
2018-12-23T15:25:02.226Z,3.43
2018-12-23T15:27:45.886Z,3.13
2018-12-23T15:30:29.133Z,3.53
2018-12-23T15:33:12.022Z,3.57
2018-12-23T15:35:55.635Z,4.17
2018-12-23T15:38:38.986Z,4.10
2018-12-23T15:41:21.825Z,4.20
2018-12-23T15:44:04.700Z,4.40
2018-12-23T15:46:48.149Z,3.70
2018-12-23T15:49:30.019Z,3.53
2018-12-23T15:52:20.750Z,3.40
2018-12-23T15:55:04.328Z,3.60
2018-12-23T15:57:47.431Z,3.20
2018-12-23T16:00:30.278Z,3.23
2018-12-23T16:03:14.061Z,4.00
2018-12-23T16:05:57.186Z,3.00
2018-12-23T16:08:40.717Z,3.50
2018-12-23T16:11:22.591Z,3.20
2018-12-23T16:14:05.623Z,3.57
2018-12-23T16:16:48.571Z,3.17
2018-12-23T16:19:32.091Z,3.50
2018-12-23T16:22:15.686Z,3.30
2018-12-23T16:24:59.386Z,3.63
2018-12-23T16:27:42.977Z,3.80
2018-12-23T16:30:25.982Z,4.40
2018-12-23T16:33:09.305Z,3.90
2018-12-23T16:35:52.342Z,4.37
2018-12-23T16:38:35.199Z,4.17
2018-12-23T16:41:18.891Z,4.53
2018-12-23T16:44:02.646Z,4.70
2018-12-23T16:46:46.256Z,4.80
2018-12-23T16:49:29.769Z,4.90
2018-12-23T16:52:13.099Z,4.97
2018-12-23T16:54:56.147Z,4.97
2018-12-23T16:57:39.147Z,5.07
2018-12-23T17:00:22.737Z,4.77
2018-12-23T17:03:05.730Z,4.80
2018-12-23T17:05:48.879Z,4.90
2018-12-23T17:08:31.974Z,4.57
2018-12-23T17:11:15.149Z,5.00
2018-12-23T17:13:58.604Z,5.00
2018-12-23T17:16:42.326Z,4.97
2018-12-23T17:19:25.387Z,5.07
2018-12-23T17:22:08.616Z,5.30
2018-12-23T17:24:52.027Z,4.87
2018-12-23T17:27:35.248Z,4.57
2018-12-23T17:30:18.174Z,4.70
2018-12-23T17:33:01.330Z,5.73
2018-12-23T17:35:44.967Z,5.93
2018-12-23T17:38:28.379Z,6.00
2018-12-23T17:41:12.002Z,5.87
2018-12-23T17:43:55.841Z,5.27
2018-12-23T17:46:38.802Z,4.93
2018-12-23T17:49:21.982Z,5.00
2018-12-23T17:52:04.689Z,4.23
2018-12-23T17:54:48.144Z,4.30
2018-12-23T17:57:31.334Z,4.17
2018-12-23T18:00:14.749Z,4.50
2018-12-23T18:02:58.567Z,4.00
2018-12-23T18:05:41.722Z,3.83
2018-12-23T18:08:25.326Z,4.20
2018-12-23T18:11:08.903Z,3.90
2018-12-23T18:13:52.509Z,3.77
2018-12-23T18:16:36.097Z,3.50
2018-12-23T18:19:19.034Z,3.67
2018-12-23T18:22:02.280Z,3.20
2018-12-23T18:24:46.027Z,3.23
2018-12-23T18:27:28.886Z,3.50
2018-12-23T18:30:12.180Z,3.27
2018-12-23T18:32:54.964Z,3.13
2018-12-23T18:35:38.016Z,3.30
2018-12-23T18:38:22.087Z,3.10
2018-12-23T18:41:05.770Z,3.47
2018-12-23T18:43:49.174Z,3.47
2018-12-23T18:46:32.612Z,3.87
2018-12-23T18:49:16.186Z,3.83
2018-12-23T18:51:59.501Z,4.20
2018-12-23T18:54:43.254Z,4.40
2018-12-23T18:57:26.069Z,4.17
2018-12-23T19:00:09.204Z,4.40
2018-12-23T19:02:52.160Z,4.47
2018-12-23T19:05:35.292Z,4.37
2018-12-23T19:08:18.796Z,5.30
2018-12-23T19:11:02.405Z,4.33
2018-12-23T19:13:45.531Z,5.50
2018-12-23T19:16:29.294Z,5.83
2018-12-23T19:19:15.840Z,5.53
2018-12-23T19:21:59.459Z,5.57
2018-12-23T19:24:42.650Z,5.73
2018-12-23T19:27:25.787Z,6.20
2018-12-23T19:30:09.081Z,5.30
2018-12-23T19:32:51.796Z,5.57
2018-12-23T19:35:34.751Z,6.03
2018-12-23T19:38:17.780Z,6.20
2018-12-23T19:41:01.436Z,5.93
2018-12-23T19:43:45.038Z,6.30
2018-12-23T19:46:27.967Z,6.90
2018-12-23T19:49:11.255Z,6.67
2018-12-23T19:51:54.730Z,5.97
2018-12-23T19:54:37.954Z,6.27
2018-12-23T19:57:21.698Z,6.17
2018-12-23T20:00:04.964Z,6.77
2018-12-23T20:02:48.183Z,6.83
2018-12-23T20:05:31.589Z,6.90
2018-12-23T20:08:14.588Z,7.23
2018-12-23T20:10:59.134Z,8.13
2018-12-23T20:13:42.655Z,8.30
2018-12-23T20:16:26.284Z,7.50
2018-12-23T20:19:09.170Z,7.90
2018-12-23T20:21:52.548Z,8.43
2018-12-23T20:24:35.800Z,7.73
2018-12-23T20:27:19.539Z,8.37
2018-12-23T20:30:03.077Z,8.70
2018-12-23T20:32:46.091Z,7.43
2018-12-23T20:35:29.542Z,8.07
2018-12-23T20:38:13.163Z,8.57
2018-12-23T20:40:56.595Z,8.60
2018-12-23T20:43:39.470Z,7.97
2018-12-23T20:46:22.552Z,8.57
2018-12-23T20:49:05.680Z,8.70
2018-12-23T20:51:48.652Z,7.97
2018-12-23T20:54:31.547Z,8.13
2018-12-23T20:57:14.980Z,8.13
2018-12-23T20:59:58.305Z,7.60
2018-12-23T21:02:41.553Z,7.33
2018-12-23T21:05:24.368Z,6.53
2018-12-23T21:08:08.324Z,7.07
2018-12-23T21:10:51.216Z,6.70
2018-12-23T21:13:34.795Z,6.60
2018-12-23T21:16:18.128Z,6.17
2018-12-23T21:19:02.439Z,5.77
2018-12-23T21:25:35.604Z,3.37
2018-12-23T21:28:45.264Z,2.27
2018-12-23T21:31:28.598Z,2.30
2018-12-23T21:34:11.558Z,2.10
2018-12-23T21:36:54.846Z,1.90
2018-12-23T21:39:38.271Z,1.77
2018-12-23T21:42:22.039Z,1.83
2018-12-23T21:45:05.537Z,1.67
2018-12-23T21:47:48.490Z,1.27
2018-12-23T21:50:31.644Z,1.30
2018-12-23T21:53:14.770Z,1.30
2018-12-23T21:55:58.078Z,1.30
2018-12-23T21:58:41.181Z,1.30
2018-12-23T22:01:24.789Z,1.10
2018-12-23T22:04:08.053Z,1.00
2018-12-23T22:06:51.599Z,1.00
2018-12-23T22:09:35.060Z,1.00
2018-12-23T22:12:17.986Z,1.10
2018-12-23T22:15:01.228Z,0.90
2018-12-23T22:17:44.678Z,1.10
2018-12-23T22:20:27.597Z,1.00
2018-12-23T22:23:10.367Z,1.00
2018-12-23T22:25:53.413Z,0.90
2018-12-23T22:28:36.946Z,0.80
2018-12-23T22:31:20.584Z,0.90
2018-12-23T22:34:03.633Z,0.70
2018-12-23T22:36:47.173Z,0.80
2018-12-23T22:39:30.153Z,1.00
2018-12-23T22:42:13.458Z,0.90
2018-12-23T22:44:56.903Z,0.90
2018-12-23T22:47:40.050Z,0.90
2018-12-23T22:50:23.806Z,1.07
2018-12-23T22:53:06.851Z,0.97
2018-12-23T22:55:49.863Z,1.00
2018-12-23T22:58:33.296Z,0.90
2018-12-23T23:01:16.180Z,0.90
2018-12-23T23:03:59.734Z,0.97
2018-12-23T23:06:42.918Z,0.90
2018-12-23T23:09:26.103Z,1.10
2018-12-23T23:12:09.222Z,1.00
2018-12-23T23:14:52.032Z,1.20
2018-12-23T23:17:35.627Z,1.00
2018-12-23T23:20:18.490Z,1.00
2018-12-23T23:23:01.272Z,1.10
2018-12-23T23:25:44.192Z,0.90
2018-12-23T23:28:27.302Z,1.10
2018-12-23T23:31:10.622Z,1.10
2018-12-23T23:33:54.118Z,1.03
2018-12-23T23:36:37.409Z,1.10
2018-12-23T23:39:21.171Z,0.90
2018-12-23T23:42:04.544Z,0.90
2018-12-23T23:44:48.174Z,1.00
2018-12-23T23:47:31.703Z,0.90
2018-12-23T23:50:15.166Z,0.90
2018-12-23T23:52:58.114Z,1.30
2018-12-23T23:55:41.790Z,0.70
2018-12-23T23:58:24.991Z,0.60
